sensor_id;sensor_type;location;lat;lon;timestamp;pressure;altitude;pressure_sealevel;temperature;humidity
250;BME280;109;19.806;-70.704;2022-07-18T00:01:58;101668.53;;;25.64;66.55
250;BME280;109;19.806;-70.704;2022-07-18T00:04:26;101666.03;;;25.61;66.50
250;BME280;109;19.806;-70.704;2022-07-18T00:06:52;101670.09;;;25.69;66.67
250;BME280;109;19.806;-70.704;2022-07-18T00:09:19;101677.34;;;25.67;66.95
250;BME280;109;19.806;-70.704;2022-07-18T00:11:48;101672.97;;;25.65;67.12
250;BME280;109;19.806;-70.704;2022-07-18T00:14:15;101671.09;;;25.67;67.21
250;BME280;109;19.806;-70.704;2022-07-18T00:16:41;101680.81;;;25.69;66.81
250;BME280;109;19.806;-70.704;2022-07-18T00:19:08;101670.34;;;25.63;67.25
250;BME280;109;19.806;-70.704;2022-07-18T00:21:35;101678.50;;;25.62;67.63
250;BME280;109;19.806;-70.704;2022-07-18T00:24:02;101675.66;;;25.65;67.15
250;BME280;109;19.806;-70.704;2022-07-18T00:26:28;101678.81;;;25.54;67.35
250;BME280;109;19.806;-70.704;2022-07-18T00:28:55;101687.47;;;25.61;67.63
250;BME280;109;19.806;-70.704;2022-07-18T00:31:22;101685.72;;;25.60;67.36
250;BME280;109;19.806;-70.704;2022-07-18T00:33:48;101692.03;;;25.59;67.46
250;BME280;109;19.806;-70.704;2022-07-18T00:36:15;101691.91;;;25.62;67.52
250;BME280;109;19.806;-70.704;2022-07-18T00:38:41;101688.41;;;25.60;68.14
250;BME280;109;19.806;-70.704;2022-07-18T00:41:08;101699.13;;;25.60;67.65
250;BME280;109;19.806;-70.704;2022-07-18T00:43:34;101708.16;;;25.57;67.81
250;BME280;109;19.806;-70.704;2022-07-18T00:46:01;101705.28;;;25.62;68.05
250;BME280;109;19.806;-70.704;2022-07-18T00:48:27;101707.16;;;25.60;67.60
250;BME280;109;19.806;-70.704;2022-07-18T00:50:53;101698.44;;;25.55;67.76
250;BME280;109;19.806;-70.704;2022-07-18T00:53:20;101706.53;;;25.53;67.85
250;BME280;109;19.806;-70.704;2022-07-18T00:55:47;101714.53;;;25.55;67.71
250;BME280;109;19.806;-70.704;2022-07-18T00:58:14;101718.13;;;25.54;68.06
250;BME280;109;19.806;-70.704;2022-07-18T01:00:41;101733.16;;;25.58;67.68
250;BME280;109;19.806;-70.704;2022-07-18T01:03:26;101739.69;;;25.51;68.23
250;BME280;109;19.806;-70.704;2022-07-18T01:05:53;101756.59;;;25.53;67.99
250;BME280;109;19.806;-70.704;2022-07-18T01:08:19;101749.53;;;25.50;67.58
250;BME280;109;19.806;-70.704;2022-07-18T01:10:46;101754.19;;;25.47;67.72
250;BME280;109;19.806;-70.704;2022-07-18T01:13:12;101754.03;;;25.50;67.90
250;BME280;109;19.806;-70.704;2022-07-18T01:15:39;101752.03;;;25.55;67.48
250;BME280;109;19.806;-70.704;2022-07-18T01:18:05;101757.81;;;25.45;67.03
250;BME280;109;19.806;-70.704;2022-07-18T01:20:32;101753.53;;;25.40;66.77
250;BME280;109;19.806;-70.704;2022-07-18T01:23:05;101756.13;;;25.43;66.93
250;BME280;109;19.806;-70.704;2022-07-18T01:25:32;101760.41;;;25.47;66.23
250;BME280;109;19.806;-70.704;2022-07-18T01:28:11;101770.38;;;25.43;65.49
250;BME280;109;19.806;-70.704;2022-07-18T01:30:44;101770.50;;;25.40;65.09
250;BME280;109;19.806;-70.704;2022-07-18T01:33:11;101780.34;;;25.40;65.07
250;BME280;109;19.806;-70.704;2022-07-18T01:35:43;101784.94;;;25.36;64.84
250;BME280;109;19.806;-70.704;2022-07-18T01:38:10;101779.94;;;25.27;64.87
250;BME280;109;19.806;-70.704;2022-07-18T01:40:42;101784.94;;;25.36;64.52
250;BME280;109;19.806;-70.704;2022-07-18T01:43:08;101790.03;;;25.44;64.60
250;BME280;109;19.806;-70.704;2022-07-18T01:45:49;101793.56;;;25.44;64.16
250;BME280;109;19.806;-70.704;2022-07-18T01:48:16;101799.00;;;25.43;64.02
250;BME280;109;19.806;-70.704;2022-07-18T01:50:56;101798.94;;;25.44;64.05
250;BME280;109;19.806;-70.704;2022-07-18T01:53:23;101805.94;;;25.49;63.63
250;BME280;109;19.806;-70.704;2022-07-18T01:56:03;101802.44;;;25.47;64.13
250;BME280;109;19.806;-70.704;2022-07-18T01:58:30;101799.88;;;25.43;63.92
250;BME280;109;19.806;-70.704;2022-07-18T02:01:10;101802.56;;;25.43;64.30
250;BME280;109;19.806;-70.704;2022-07-18T02:03:50;101806.03;;;25.45;64.34
250;BME280;109;19.806;-70.704;2022-07-18T02:06:16;101809.44;;;25.49;64.76
250;BME280;109;19.806;-70.704;2022-07-18T02:08:56;101814.75;;;25.51;64.38
250;BME280;109;19.806;-70.704;2022-07-18T02:11:23;101823.88;;;25.47;64.60
250;BME280;109;19.806;-70.704;2022-07-18T02:14:04;101819.38;;;25.47;64.89
250;BME280;109;19.806;-70.704;2022-07-18T02:16:31;101807.72;;;25.48;65.01
250;BME280;109;19.806;-70.704;2022-07-18T02:19:11;101816.06;;;25.40;64.79
250;BME280;109;19.806;-70.704;2022-07-18T02:21:45;101820.81;;;25.34;64.68
250;BME280;109;19.806;-70.704;2022-07-18T02:24:31;101822.56;;;25.35;64.85
250;BME280;109;19.806;-70.704;2022-07-18T02:27:10;101826.38;;;25.28;64.71
250;BME280;109;19.806;-70.704;2022-07-18T02:29:50;101825.75;;;25.44;64.74
250;BME280;109;19.806;-70.704;2022-07-18T02:32:17;101822.84;;;25.49;64.41
250;BME280;109;19.806;-70.704;2022-07-18T02:34:58;101820.50;;;25.41;64.38
250;BME280;109;19.806;-70.704;2022-07-18T02:37:25;101816.28;;;25.36;64.42
250;BME280;109;19.806;-70.704;2022-07-18T02:40:07;101827.22;;;25.30;64.85
250;BME280;109;19.806;-70.704;2022-07-18T02:42:34;101824.38;;;25.34;64.27
250;BME280;109;19.806;-70.704;2022-07-18T02:45:13;101825.97;;;25.38;64.73
250;BME280;109;19.806;-70.704;2022-07-18T02:47:40;101822.19;;;25.44;64.53
250;BME280;109;19.806;-70.704;2022-07-18T02:50:20;101821.44;;;25.40;64.64
250;BME280;109;19.806;-70.704;2022-07-18T02:52:47;101823.13;;;25.43;64.68
250;BME280;109;19.806;-70.704;2022-07-18T02:55:28;101825.75;;;25.44;64.16
250;BME280;109;19.806;-70.704;2022-07-18T02:57:55;101832.91;;;25.44;63.96
250;BME280;109;19.806;-70.704;2022-07-18T03:00:34;101822.63;;;25.33;64.36
250;BME280;109;19.806;-70.704;2022-07-18T03:03:01;101828.53;;;25.41;64.35
250;BME280;109;19.806;-70.704;2022-07-18T03:05:40;101829.34;;;25.43;63.82
250;BME280;109;19.806;-70.704;2022-07-18T03:08:07;101827.50;;;25.45;64.16
250;BME280;109;19.806;-70.704;2022-07-18T03:10:47;101823.94;;;25.45;64.23
250;BME280;109;19.806;-70.704;2022-07-18T03:13:14;101822.19;;;25.44;63.92
250;BME280;109;19.806;-70.704;2022-07-18T03:16:01;101825.78;;;25.43;64.02
250;BME280;109;19.806;-70.704;2022-07-18T03:18:33;101831.47;;;25.35;64.34
250;BME280;109;19.806;-70.704;2022-07-18T03:21:13;101832.47;;;25.33;64.55
250;BME280;109;19.806;-70.704;2022-07-18T03:24:00;101827.66;;;25.41;64.44
250;BME280;109;19.806;-70.704;2022-07-18T03:26:40;101832.25;;;25.14;64.91
250;BME280;109;19.806;-70.704;2022-07-18T03:29:20;101837.66;;;25.13;64.75
250;BME280;109;19.806;-70.704;2022-07-18T03:31:47;101832.63;;;25.05;65.12
250;BME280;109;19.806;-70.704;2022-07-18T03:34:26;101828.97;;;25.07;65.15
250;BME280;109;19.806;-70.704;2022-07-18T03:36:53;101831.38;;;25.14;65.28
250;BME280;109;19.806;-70.704;2022-07-18T03:39:32;101829.88;;;25.06;65.13
250;BME280;109;19.806;-70.704;2022-07-18T03:41:59;101831.75;;;25.04;64.88
250;BME280;109;19.806;-70.704;2022-07-18T03:44:39;101832.63;;;25.05;64.89
250;BME280;109;19.806;-70.704;2022-07-18T03:47:06;101833.44;;;25.07;64.73
250;BME280;109;19.806;-70.704;2022-07-18T03:49:45;101829.88;;;25.06;64.68
250;BME280;109;19.806;-70.704;2022-07-18T03:52:12;101827.22;;;25.06;64.51
250;BME280;109;19.806;-70.704;2022-07-18T03:54:51;101825.56;;;25.02;64.75
250;BME280;109;19.806;-70.704;2022-07-18T03:57:18;101830.75;;;25.07;64.35
250;BME280;109;19.806;-70.704;2022-07-18T03:59:57;101832.50;;;25.08;64.73
250;BME280;109;19.806;-70.704;2022-07-18T04:02:24;101823.53;;;25.09;64.59
250;BME280;109;19.806;-70.704;2022-07-18T04:05:04;101829.53;;;25.16;64.24
250;BME280;109;19.806;-70.704;2022-07-18T04:07:30;101811.97;;;25.08;64.61
250;BME280;109;19.806;-70.704;2022-07-18T04:10:10;101821.75;;;25.09;64.69
250;BME280;109;19.806;-70.704;2022-07-18T04:12:52;101814.53;;;25.10;64.82
250;BME280;109;19.806;-70.704;2022-07-18T04:15:33;101813.06;;;25.03;65.09
250;BME280;109;19.806;-70.704;2022-07-18T04:17:59;101814.09;;;24.99;64.69
250;BME280;109;19.806;-70.704;2022-07-18T04:20:39;101809.81;;;24.95;65.14
250;BME280;109;19.806;-70.704;2022-07-18T04:23:08;101813.97;;;25.02;64.77
250;BME280;109;19.806;-70.704;2022-07-18T04:25:54;101810.47;;;25.00;64.81
250;BME280;109;19.806;-70.704;2022-07-18T04:28:33;101811.19;;;25.05;64.61
250;BME280;109;19.806;-70.704;2022-07-18T04:31:13;101807.47;;;25.09;64.59
250;BME280;109;19.806;-70.704;2022-07-18T04:33:53;101813.97;;;25.02;64.74
250;BME280;109;19.806;-70.704;2022-07-18T04:36:20;101819.28;;;25.03;64.88
250;BME280;109;19.806;-70.704;2022-07-18T04:38:59;101809.09;;;24.90;65.13
250;BME280;109;19.806;-70.704;2022-07-18T04:41:26;101815.16;;;24.95;64.88
250;BME280;109;19.806;-70.704;2022-07-18T04:44:05;101812.53;;;24.93;64.98
250;BME280;109;19.806;-70.704;2022-07-18T04:46:32;101822.19;;;24.97;65.11
250;BME280;109;19.806;-70.704;2022-07-18T04:49:11;101829.44;;;24.95;64.66
250;BME280;109;19.806;-70.704;2022-07-18T04:51:38;101822.38;;;24.93;64.74
250;BME280;109;19.806;-70.704;2022-07-18T04:54:17;101831.09;;;24.98;64.58
250;BME280;109;19.806;-70.704;2022-07-18T04:56:44;101823.00;;;24.99;64.69
250;BME280;109;19.806;-70.704;2022-07-18T04:59:23;101827.47;;;24.99;64.80
250;BME280;109;19.806;-70.704;2022-07-18T05:01:50;101818.53;;;25.00;64.56
250;BME280;109;19.806;-70.704;2022-07-18T05:04:38;101821.91;;;25.05;65.05
250;BME280;109;19.806;-70.704;2022-07-18T05:07:11;101815.69;;;25.04;65.01
250;BME280;109;19.806;-70.704;2022-07-18T05:09:51;101814.75;;;25.05;64.97
250;BME280;109;19.806;-70.704;2022-07-18T05:12:18;101807.81;;;25.00;64.99
250;BME280;109;19.806;-70.704;2022-07-18T05:14:57;101813.31;;;24.97;64.79
250;BME280;109;19.806;-70.704;2022-07-18T05:17:24;101809.66;;;24.98;65.16
250;BME280;109;19.806;-70.704;2022-07-18T05:20:09;101799.81;;;24.98;65.34
250;BME280;109;19.806;-70.704;2022-07-18T05:22:43;101799.25;;;24.90;65.15
250;BME280;109;19.806;-70.704;2022-07-18T05:25:30;101791.34;;;24.87;65.15
250;BME280;109;19.806;-70.704;2022-07-18T05:28:09;101799.31;;;24.89;65.07
250;BME280;109;19.806;-70.704;2022-07-18T05:30:49;101779.88;;;24.84;65.23
250;BME280;109;19.806;-70.704;2022-07-18T05:33:16;101787.06;;;24.83;65.16
250;BME280;109;19.806;-70.704;2022-07-18T05:35:56;101783.13;;;24.92;65.49
250;BME280;109;19.806;-70.704;2022-07-18T05:38:23;101786.84;;;24.88;65.20
250;BME280;109;19.806;-70.704;2022-07-18T05:41:02;101782.22;;;24.93;64.95
250;BME280;109;19.806;-70.704;2022-07-18T05:43:29;101775.09;;;24.92;64.98
250;BME280;109;19.806;-70.704;2022-07-18T05:46:09;101773.50;;;24.86;65.03
250;BME280;109;19.806;-70.704;2022-07-18T05:48:48;101773.25;;;24.94;64.98
250;BME280;109;19.806;-70.704;2022-07-18T05:51:15;101770.66;;;24.91;64.70
250;BME280;109;19.806;-70.704;2022-07-18T05:53:55;101768.16;;;24.86;64.96
250;BME280;109;19.806;-70.704;2022-07-18T05:56:22;101780.72;;;24.84;64.97
250;BME280;109;19.806;-70.704;2022-07-18T05:59:08;101775.47;;;24.83;65.00
250;BME280;109;19.806;-70.704;2022-07-18T06:01:42;101771.78;;;24.85;64.73
250;BME280;109;19.806;-70.704;2022-07-18T06:04:21;101772.03;;;24.79;65.01
250;BME280;109;19.806;-70.704;2022-07-18T06:06:48;101767.28;;;24.86;64.60
250;BME280;109;19.806;-70.704;2022-07-18T06:09:27;101772.78;;;24.83;64.51
250;BME280;109;19.806;-70.704;2022-07-18T06:12:00;101774.53;;;24.84;64.47
250;BME280;109;19.806;-70.704;2022-07-18T06:14:39;101774.38;;;24.87;64.52
250;BME280;109;19.806;-70.704;2022-07-18T06:17:06;101775.91;;;24.94;64.50
250;BME280;109;19.806;-70.704;2022-07-18T06:19:45;101778.66;;;24.92;64.11
250;BME280;109;19.806;-70.704;2022-07-18T06:22:12;101785.06;;;24.88;64.26
250;BME280;109;19.806;-70.704;2022-07-18T06:24:58;101781.50;;;24.88;64.37
250;BME280;109;19.806;-70.704;2022-07-18T06:27:37;101786.09;;;24.84;64.18
250;BME280;109;19.806;-70.704;2022-07-18T06:30:17;101781.59;;;24.85;64.16
250;BME280;109;19.806;-70.704;2022-07-18T06:32:44;101786.28;;;24.80;64.42
250;BME280;109;19.806;-70.704;2022-07-18T06:35:23;101780.94;;;24.80;64.14
250;BME280;109;19.806;-70.704;2022-07-18T06:37:50;101784.28;;;24.85;64.48
250;BME280;109;19.806;-70.704;2022-07-18T06:40:29;101778.25;;;24.80;64.33
250;BME280;109;19.806;-70.704;2022-07-18T06:42:56;101782.69;;;24.81;64.82
250;BME280;109;19.806;-70.704;2022-07-18T06:45:36;101781.50;;;24.88;64.31
250;BME280;109;19.806;-70.704;2022-07-18T06:48:02;101768.16;;;24.86;64.31
250;BME280;109;19.806;-70.704;2022-07-18T06:50:42;101776.41;;;24.82;64.22
250;BME280;109;19.806;-70.704;2022-07-18T06:53:09;101770.84;;;24.86;64.31
250;BME280;109;19.806;-70.704;2022-07-18T06:55:48;101768.97;;;24.88;64.29
250;BME280;109;19.806;-70.704;2022-07-18T06:58:22;101769.03;;;24.87;64.20
250;BME280;109;19.806;-70.704;2022-07-18T07:01:02;101769.03;;;24.87;64.11
250;BME280;109;19.806;-70.704;2022-07-18T07:03:29;101762.84;;;24.85;64.05
250;BME280;109;19.806;-70.704;2022-07-18T07:06:08;101761.38;;;24.78;64.02
250;BME280;109;19.806;-70.704;2022-07-18T07:08:48;101770.38;;;24.75;64.24
250;BME280;109;19.806;-70.704;2022-07-18T07:11:15;101765.63;;;24.83;64.68
250;BME280;109;19.806;-70.704;2022-07-18T07:13:55;101769.41;;;24.78;64.47
250;BME280;109;19.806;-70.704;2022-07-18T07:16:22;101758.38;;;24.85;63.99
250;BME280;109;19.806;-70.704;2022-07-18T07:19:01;101761.31;;;24.79;64.23
250;BME280;109;19.806;-70.704;2022-07-18T07:21:28;101762.41;;;24.73;63.83
250;BME280;109;19.806;-70.704;2022-07-18T07:24:15;101762.41;;;24.73;63.91
250;BME280;109;19.806;-70.704;2022-07-18T07:26:54;101754.25;;;24.77;63.88
250;BME280;109;19.806;-70.704;2022-07-18T07:29:34;101757.66;;;24.82;63.82
250;BME280;109;19.806;-70.704;2022-07-18T07:32:01;101756.72;;;24.83;64.14
250;BME280;109;19.806;-70.704;2022-07-18T07:34:40;101752.34;;;24.80;64.12
250;BME280;109;19.806;-70.704;2022-07-18T07:37:07;101762.94;;;24.83;64.04
250;BME280;109;19.806;-70.704;2022-07-18T07:39:46;101761.06;;;24.85;63.75
250;BME280;109;19.806;-70.704;2022-07-18T07:42:15;101757.59;;;24.83;63.92
250;BME280;109;19.806;-70.704;2022-07-18T07:44:54;101750.66;;;24.78;63.90
250;BME280;109;19.806;-70.704;2022-07-18T07:47:21;101747.75;;;24.84;64.19
250;BME280;109;19.806;-70.704;2022-07-18T07:50:09;101748.97;;;24.75;63.91
250;BME280;109;19.806;-70.704;2022-07-18T07:52:42;101753.78;;;24.65;64.14
250;BME280;109;19.806;-70.704;2022-07-18T07:55:22;101751.47;;;24.80;64.15
250;BME280;109;19.806;-70.704;2022-07-18T07:57:49;101750.50;;;24.82;64.15
250;BME280;109;19.806;-70.704;2022-07-18T08:00:28;101746.88;;;24.83;64.13
250;BME280;109;19.806;-70.704;2022-07-18T08:03:00;101749.38;;;24.88;63.58
250;BME280;109;19.806;-70.704;2022-07-18T08:05:50;101737.03;;;24.84;63.63
250;BME280;109;19.806;-70.704;2022-07-18T08:08:23;101740.44;;;24.87;63.65
250;BME280;109;19.806;-70.704;2022-07-18T08:11:03;101743.78;;;24.94;63.54
250;BME280;109;19.806;-70.704;2022-07-18T08:13:43;101735.69;;;24.95;63.64
250;BME280;109;19.806;-70.704;2022-07-18T08:16:10;101737.28;;;24.78;63.75
250;BME280;109;19.806;-70.704;2022-07-18T08:18:50;101734.91;;;24.68;63.86
250;BME280;109;19.806;-70.704;2022-07-18T08:21:16;101728.59;;;24.71;63.64
250;BME280;109;19.806;-70.704;2022-07-18T08:23:55;101722.94;;;24.79;63.39
250;BME280;109;19.806;-70.704;2022-07-18T08:26:22;101725.75;;;24.75;63.67
250;BME280;109;19.806;-70.704;2022-07-18T08:29:08;101722.69;;;24.85;63.33
250;BME280;109;19.806;-70.704;2022-07-18T08:31:41;101717.13;;;24.91;63.29
250;BME280;109;19.806;-70.704;2022-07-18T08:34:21;101710.94;;;24.89;63.26
250;BME280;109;19.806;-70.704;2022-07-18T08:36:48;101720.84;;;24.87;63.17
250;BME280;109;19.806;-70.704;2022-07-18T08:39:27;101710.13;;;24.87;62.89
250;BME280;109;19.806;-70.704;2022-07-18T08:41:54;101713.16;;;24.78;62.85
250;BME280;109;19.806;-70.704;2022-07-18T08:44:36;101712.28;;;24.77;63.14
250;BME280;109;19.806;-70.704;2022-07-18T08:47:04;101716.19;;;24.68;63.67
250;BME280;109;19.806;-70.704;2022-07-18T08:49:54;101717.94;;;24.69;63.56
250;BME280;109;19.806;-70.704;2022-07-18T08:52:28;101709.09;;;24.67;63.38
250;BME280;109;19.806;-70.704;2022-07-18T08:55:10;101714.22;;;24.73;63.04
250;BME280;109;19.806;-70.704;2022-07-18T08:57:38;101713.22;;;24.76;63.24
250;BME280;109;19.806;-70.704;2022-07-18T09:00:22;101713.22;;;24.76;63.04
250;BME280;109;19.806;-70.704;2022-07-18T09:03:03;101705.91;;;24.81;63.13
250;BME280;109;19.806;-70.704;2022-07-18T09:05:44;101712.25;;;24.79;62.85
250;BME280;109;19.806;-70.704;2022-07-18T09:08:22;101715.09;;;24.72;62.94
250;BME280;109;19.806;-70.704;2022-07-18T09:11:10;101720.34;;;24.77;62.69
250;BME280;109;19.806;-70.704;2022-07-18T09:13:50;101705.13;;;24.78;62.80
250;BME280;109;19.806;-70.704;2022-07-18T09:16:18;101712.44;;;24.72;62.90
250;BME280;109;19.806;-70.704;2022-07-18T09:19:05;101709.75;;;24.72;62.91
250;BME280;109;19.806;-70.704;2022-07-18T09:21:38;101715.75;;;24.81;63.03
250;BME280;109;19.806;-70.704;2022-07-18T09:24:19;101720.34;;;24.77;63.06
250;BME280;109;19.806;-70.704;2022-07-18T09:26:52;101718.59;;;24.76;63.04
250;BME280;109;19.806;-70.704;2022-07-18T09:29:33;101728.41;;;24.75;62.91
250;BME280;109;19.806;-70.704;2022-07-18T09:32:01;101721.03;;;24.82;63.08
250;BME280;109;19.806;-70.704;2022-07-18T09:34:40;101727.31;;;24.81;63.07
250;BME280;109;19.806;-70.704;2022-07-18T09:37:16;101727.50;;;24.77;63.20
250;BME280;109;19.806;-70.704;2022-07-18T09:40:21;101738.09;;;24.80;63.16
250;BME280;109;19.806;-70.704;2022-07-18T09:42:57;101733.56;;;24.82;62.93
250;BME280;109;19.806;-70.704;2022-07-18T09:45:57;101745.47;;;24.71;63.10
250;BME280;109;19.806;-70.704;2022-07-18T09:48:35;101744.69;;;24.69;63.03
250;BME280;109;19.806;-70.704;2022-07-18T09:51:16;101736.53;;;24.72;63.48
250;BME280;109;19.806;-70.704;2022-07-18T09:53:56;101739.19;;;24.72;63.42
250;BME280;109;19.806;-70.704;2022-07-18T09:56:25;101738.28;;;24.50;63.68
250;BME280;109;19.806;-70.704;2022-07-18T09:59:11;101744.44;;;24.52;63.92
250;BME280;109;19.806;-70.704;2022-07-18T10:01:38;101742.06;;;24.68;63.35
250;BME280;109;19.806;-70.704;2022-07-18T10:04:18;101741.97;;;24.71;63.30
250;BME280;109;19.806;-70.704;2022-07-18T10:06:45;101745.41;;;24.74;63.20
250;BME280;109;19.806;-70.704;2022-07-18T10:09:24;101753.31;;;24.54;63.58
250;BME280;109;19.806;-70.704;2022-07-18T10:11:51;101754.22;;;24.53;64.08
250;BME280;109;19.806;-70.704;2022-07-18T10:14:32;101755.97;;;24.54;63.76
250;BME280;109;19.806;-70.704;2022-07-18T10:16:59;101756.75;;;24.58;63.38
250;BME280;109;19.806;-70.704;2022-07-18T10:19:40;101756.25;;;24.47;63.56
250;BME280;109;19.806;-70.704;2022-07-18T10:22:07;101749.84;;;24.51;63.74
250;BME280;109;19.806;-70.704;2022-07-18T10:24:53;101751.66;;;24.50;63.42
250;BME280;109;19.806;-70.704;2022-07-18T10:30:46;101750.63;;;24.54;63.70
250;BME280;109;19.806;-70.704;2022-07-18T10:33:41;101765.41;;;24.64;63.44
250;BME280;109;19.806;-70.704;2022-07-18T10:36:22;101762.00;;;24.59;63.69
250;BME280;109;19.806;-70.704;2022-07-18T10:39:06;101767.91;;;24.69;63.47
250;BME280;109;19.806;-70.704;2022-07-18T10:57:33;101788.00;;;25.04;62.53
250;BME280;109;19.806;-70.704;2022-07-18T11:00:11;101783.47;;;25.06;62.74
250;BME280;109;19.806;-70.704;2022-07-18T11:02:44;101795.47;;;25.19;61.98
250;BME280;109;19.806;-70.704;2022-07-18T11:21:31;101796.00;;;25.27;61.91
250;BME280;109;19.806;-70.704;2022-07-18T11:24:09;101796.00;;;25.27;61.74
250;BME280;109;19.806;-70.704;2022-07-18T11:26:38;101797.31;;;25.17;61.85
250;BME280;109;19.806;-70.704;2022-07-18T11:29:07;101803.59;;;25.16;62.06
250;BME280;109;19.806;-70.704;2022-07-18T11:31:52;101793.59;;;25.21;62.07
250;BME280;109;19.806;-70.704;2022-07-18T11:34:19;101800.03;;;25.39;61.19
250;BME280;109;19.806;-70.704;2022-07-18T11:36:47;101800.66;;;25.67;60.75
250;BME280;109;19.806;-70.704;2022-07-18T11:39:15;101805.84;;;25.94;60.47
250;BME280;109;19.806;-70.704;2022-07-18T11:41:54;101800.41;;;26.15;59.68
250;BME280;109;19.806;-70.704;2022-07-18T11:44:20;101796.81;;;26.37;59.61
250;BME280;109;19.806;-70.704;2022-07-18T11:47:04;101804.94;;;26.56;59.42
250;BME280;109;19.806;-70.704;2022-07-18T11:49:31;101802.28;;;26.74;58.58
250;BME280;109;19.806;-70.704;2022-07-18T11:51:57;101802.88;;;26.81;58.36
250;BME280;109;19.806;-70.704;2022-07-18T11:54:24;101809.72;;;26.88;57.88
250;BME280;109;19.806;-70.704;2022-07-18T11:56:53;101805.94;;;26.92;58.07
250;BME280;109;19.806;-70.704;2022-07-18T11:59:20;101800.88;;;27.05;58.06
250;BME280;109;19.806;-70.704;2022-07-18T12:01:47;101807.63;;;26.95;57.81
250;BME280;109;19.806;-70.704;2022-07-18T12:04:23;101809.50;;;26.54;58.14
250;BME280;109;19.806;-70.704;2022-07-18T12:07:20;101799.25;;;26.43;58.81
250;BME280;109;19.806;-70.704;2022-07-18T12:09:52;101799.69;;;26.32;58.63
250;BME280;109;19.806;-70.704;2022-07-18T12:12:21;101795.19;;;26.33;59.36
250;BME280;109;19.806;-70.704;2022-07-18T12:14:58;101788.25;;;26.49;59.33
250;BME280;109;19.806;-70.704;2022-07-18T12:17:25;101798.44;;;26.41;59.38
250;BME280;109;19.806;-70.704;2022-07-18T12:19:52;101794.56;;;26.48;59.41
250;BME280;109;19.806;-70.704;2022-07-18T12:22:34;101799.53;;;26.76;58.99
250;BME280;109;19.806;-70.704;2022-07-18T12:25:00;101798.63;;;26.96;58.73
250;BME280;109;19.806;-70.704;2022-07-18T12:30:18;101800.88;;;27.05;58.62
250;BME280;109;19.806;-70.704;2022-07-18T12:32:57;101802.78;;;27.21;58.32
250;BME280;109;19.806;-70.704;2022-07-18T12:35:31;101799.72;;;27.29;58.31
250;BME280;109;19.806;-70.704;2022-07-18T12:38:06;101801.72;;;27.62;57.65
250;BME280;109;19.806;-70.704;2022-07-18T12:40:48;101806.19;;;27.80;57.43
250;BME280;109;19.806;-70.704;2022-07-18T12:43:27;101809.94;;;27.95;57.63
250;BME280;109;19.806;-70.704;2022-07-18T12:45:55;101809.44;;;27.86;57.48
250;BME280;109;19.806;-70.704;2022-07-18T12:48:22;101814.28;;;27.80;57.69
250;BME280;109;19.806;-70.704;2022-07-18T12:51:02;101814.50;;;27.75;57.96
250;BME280;109;19.806;-70.704;2022-07-18T12:53:31;101814.94;;;28.02;57.66
250;BME280;109;19.806;-70.704;2022-07-18T12:55:58;101823.66;;;28.07;57.56
250;BME280;109;19.806;-70.704;2022-07-18T12:58:24;101831.34;;;28.15;57.32
250;BME280;109;19.806;-70.704;2022-07-18T13:00:51;101826.91;;;28.14;57.40
250;BME280;109;19.806;-70.704;2022-07-18T13:03:17;101836.00;;;28.11;57.35
250;BME280;109;19.806;-70.704;2022-07-18T13:05:44;101830.44;;;27.97;58.03
250;BME280;109;19.806;-70.704;2022-07-18T13:08:10;101838.94;;;28.07;58.20
250;BME280;109;19.806;-70.704;2022-07-18T13:10:41;101838.69;;;28.29;57.78
250;BME280;109;19.806;-70.704;2022-07-18T13:13:08;101832.75;;;28.39;57.67
250;BME280;109;19.806;-70.704;2022-07-18T13:15:36;101830.31;;;28.52;57.64
250;BME280;109;19.806;-70.704;2022-07-18T13:18:04;101822.84;;;28.57;57.89
250;BME280;109;19.806;-70.704;2022-07-18T13:20:31;101834.91;;;28.50;58.06
250;BME280;109;19.806;-70.704;2022-07-18T13:22:58;101833.63;;;28.40;57.62
250;BME280;109;19.806;-70.704;2022-07-18T13:25:30;101832.34;;;28.30;57.96
250;BME280;109;19.806;-70.704;2022-07-18T13:27:58;101829.91;;;28.42;58.20
250;BME280;109;19.806;-70.704;2022-07-18T13:30:25;101840.38;;;28.31;58.47
250;BME280;109;19.806;-70.704;2022-07-18T13:32:51;101836.16;;;28.43;58.27
250;BME280;109;19.806;-70.704;2022-07-18T13:35:17;101831.88;;;28.39;58.10
250;BME280;109;19.806;-70.704;2022-07-18T13:37:44;101825.41;;;28.60;58.85
250;BME280;109;19.806;-70.704;2022-07-18T13:40:11;101822.84;;;28.57;57.70
250;BME280;109;19.806;-70.704;2022-07-18T13:42:39;101827.28;;;28.41;58.03
250;BME280;109;19.806;-70.704;2022-07-18T13:45:06;101833.22;;;28.30;58.04
250;BME280;109;19.806;-70.704;2022-07-18T13:47:33;101828.47;;;28.35;58.18
250;BME280;109;19.806;-70.704;2022-07-18T13:50:00;101822.03;;;28.38;58.34
250;BME280;109;19.806;-70.704;2022-07-18T13:52:26;101823.16;;;28.51;58.18
250;BME280;109;19.806;-70.704;2022-07-18T13:54:53;101824.13;;;28.50;57.99
250;BME280;109;19.806;-70.704;2022-07-18T13:57:21;101822.78;;;28.58;58.03
250;BME280;109;19.806;-70.704;2022-07-18T13:59:47;101819.19;;;28.41;58.02
250;BME280;109;19.806;-70.704;2022-07-18T14:02:14;101814.84;;;28.38;58.10
250;BME280;109;19.806;-70.704;2022-07-18T14:04:40;101819.19;;;28.41;58.30
250;BME280;109;19.806;-70.704;2022-07-18T14:07:07;101821.91;;;28.41;58.29
250;BME280;109;19.806;-70.704;2022-07-18T14:09:34;101820.97;;;28.59;58.48
250;BME280;109;19.806;-70.704;2022-07-18T14:12:00;101815.72;;;28.39;57.92
250;BME280;109;19.806;-70.704;2022-07-18T14:14:27;101816.59;;;28.39;57.97
250;BME280;109;19.806;-70.704;2022-07-18T14:16:53;101818.41;;;28.56;58.23
250;BME280;109;19.806;-70.704;2022-07-18T14:19:20;101816.25;;;28.63;57.83
250;BME280;109;19.806;-70.704;2022-07-18T14:21:46;101818.06;;;28.62;57.69